Time;durP1;ratioP1;P1;durP2;ratioP2;P2;SDS_P1;SDS_P2;PMS_P1;PMS_P2;Temp;Humidity;BMP_temperature;BMP_pressure;BME280_temperature;BME280_humidity;BME280_pressure;Samples;Min_cycle;Max_cycle;Signal;HPM_P1;HPM_P2
2021/08/04 00:05:27;;;;;;;4.88;2.70;;;15.60;99.90;;;;;;12480398;28;20061;-86
2021/08/04 00:11:29;;;;;;;4.60;3.10;;;15.50;99.90;;;;;;12533282;28;20151;-86
2021/08/04 00:17:31;;;;;;;6.93;3.10;;;15.40;99.90;;;;;;12531219;28;20052;-86
2021/08/04 00:23:33;;;;;;;4.03;3.20;;;15.50;99.90;;;;;;12512834;28;20123;-86
2021/08/04 00:29:35;;;;;;;6.53;3.05;;;15.30;99.90;;;;;;12509939;28;20151;-86
2021/08/04 00:35:36;;;;;;;6.00;3.10;;;15.30;99.90;;;;;;12522854;28;20135;-85
2021/08/04 00:41:42;;;;;;;6.95;3.70;;;15.30;99.90;;;;;;12499899;28;20100;-86
2021/08/04 00:47:44;;;;;;;4.95;3.28;;;15.20;99.90;;;;;;12501683;28;20289;-85
2021/08/04 00:53:46;;;;;;;6.03;3.35;;;15.10;99.90;;;;;;12536058;28;20044;-85
2021/08/04 00:59:48;;;;;;;5.93;3.95;;;15.10;99.90;;;;;;12534355;28;20094;-85
2021/08/04 01:05:56;;;;;;;5.18;3.20;;;15.10;99.90;;;;;;12506151;28;20127;-85
2021/08/04 01:12:04;;;;;;;5.65;2.80;;;15.20;99.90;;;;;;12518047;28;20703;-86
2021/08/04 01:18:07;;;;;;;4.60;2.85;;;15.20;99.90;;;;;;12522815;28;20076;-86
2021/08/04 01:24:45;;;;;;;6.03;2.55;;;15.30;99.90;;;;;;12512790;28;20048;-86
2021/08/04 01:30:51;;;;;;;4.85;2.55;;;15.30;99.90;;;;;;12519749;28;20045;-86
2021/08/04 01:36:54;;;;;;;4.18;2.72;;;15.30;99.90;;;;;;12525576;28;20057;-86
2021/08/04 01:42:57;;;;;;;4.40;2.47;;;15.30;99.90;;;;;;12525178;28;20078;-86
2021/08/04 01:49:02;;;;;;;4.72;3.13;;;15.30;99.90;;;;;;12508228;28;20053;-86
2021/08/04 01:55:07;;;;;;;4.15;3.05;;;15.30;99.90;;;;;;12502692;28;20050;-86
2021/08/04 02:01:10;;;;;;;4.00;2.97;;;15.30;99.90;;;;;;12520456;28;20130;-86
2021/08/04 02:07:23;;;;;;;5.45;2.85;;;15.30;99.90;;;;;;12508962;28;20049;-85
2021/08/04 02:13:47;;;;;;;7.67;3.20;;;15.20;99.90;;;;;;12497638;28;20722;-87
2021/08/04 02:20:26;;;;;;;5.65;3.10;;;15.10;99.90;;;;;;12506118;28;20087;-85
2021/08/04 02:26:30;;;;;;;4.70;2.55;;;15.20;99.90;;;;;;12405244;28;20111;-86
2021/08/04 02:32:32;;;;;;;4.68;2.80;;;15.20;99.90;;;;;;12461992;28;20640;-86
2021/08/04 02:38:35;;;;;;;5.05;2.83;;;15.30;99.90;;;;;;12500881;28;20135;-86
2021/08/04 02:44:36;;;;;;;6.93;3.63;;;15.20;99.90;;;;;;12443895;28;20058;-86
2021/08/04 02:50:45;;;;;;;5.28;3.10;;;15.20;99.90;;;;;;12429949;28;20109;-86
2021/08/04 02:56:48;;;;;;;6.30;3.10;;;15.10;99.90;;;;;;12449974;28;20528;-86
2021/08/04 03:02:49;;;;;;;5.07;3.13;;;15.10;99.90;;;;;;12442681;28;20110;-86
2021/08/04 03:08:53;;;;;;;3.53;2.80;;;15.00;99.90;;;;;;12439525;28;20042;-86
2021/08/04 03:14:55;;;;;;;6.57;4.32;;;15.00;99.90;;;;;;12511084;28;20098;-86
2021/08/04 03:20:57;;;;;;;6.35;4.50;;;15.10;99.90;;;;;;12524969;28;20040;-86
2021/08/04 03:26:59;;;;;;;5.68;4.30;;;15.10;99.90;;;;;;12529793;28;20045;-86
2021/08/04 03:33:01;;;;;;;6.95;4.35;;;15.10;99.90;;;;;;12534788;28;20082;-86
2021/08/04 03:39:03;;;;;;;7.38;4.68;;;15.10;99.90;;;;;;12540755;28;20048;-86
2021/08/04 03:45:10;;;;;;;8.48;5.25;;;15.20;99.90;;;;;;12536754;28;20057;-86
2021/08/04 03:51:12;;;;;;;6.80;4.97;;;15.10;99.90;;;;;;12560211;28;20114;-86
2021/08/04 03:57:14;;;;;;;6.20;4.80;;;15.10;99.90;;;;;;12563657;28;20044;-87
2021/08/04 04:03:15;;;;;;;6.95;5.18;;;15.10;99.90;;;;;;12530681;28;20074;-86
2021/08/04 04:09:18;;;;;;;7.72;5.25;;;15.00;99.90;;;;;;12537781;28;20049;-86
2021/08/04 04:15:20;;;;;;;8.05;5.40;;;15.10;99.90;;;;;;12545693;28;20105;-86
2021/08/04 04:21:21;;;;;;;8.85;5.47;;;15.10;99.90;;;;;;12528413;28;20037;-87
2021/08/04 04:27:23;;;;;;;7.90;5.60;;;15.10;99.90;;;;;;12535122;28;20061;-86
2021/08/04 04:33:25;;;;;;;7.63;5.72;;;15.10;99.90;;;;;;12526505;28;20130;-86
2021/08/04 04:39:27;;;;;;;7.80;5.90;;;15.00;99.90;;;;;;12529792;28;20751;-85
2021/08/04 04:45:29;;;;;;;9.80;5.85;;;15.00;99.90;;;;;;12529322;28;20071;-86
2021/08/04 04:51:31;;;;;;;8.77;6.00;;;15.00;99.90;;;;;;12548720;28;20451;-86
2021/08/04 04:57:32;;;;;;;7.93;5.72;;;15.00;99.90;;;;;;12551985;28;20413;-86
2021/08/04 05:03:34;;;;;;;9.43;5.88;;;15.10;99.90;;;;;;12551585;28;20108;-87
2021/08/04 05:09:37;;;;;;;8.23;5.78;;;15.00;99.90;;;;;;12549909;28;20115;-86
2021/08/04 05:15:39;;;;;;;7.97;5.43;;;15.10;99.90;;;;;;12555839;28;20140;-85
2021/08/04 05:21:41;;;;;;;7.38;5.40;;;15.10;99.90;;;;;;12554948;28;20238;-86
2021/08/04 05:27:43;;;;;;;7.95;5.43;;;15.10;99.90;;;;;;12553225;28;20638;-86
2021/08/04 05:33:45;;;;;;;8.23;5.88;;;15.00;99.90;;;;;;12542881;28;20572;-87
2021/08/04 05:39:47;;;;;;;9.65;5.30;;;15.10;99.90;;;;;;12575603;28;20083;-86
2021/08/04 05:45:49;;;;;;;7.75;5.07;;;15.30;99.90;;;;;;12545864;28;20049;-87
2021/08/04 05:51:51;;;;;;;6.80;4.75;;;15.20;99.90;;;;;;12548060;28;20827;-86
2021/08/04 05:57:53;;;;;;;8.65;4.97;;;15.10;99.90;;;;;;12551269;28;20056;-87
2021/08/04 06:03:55;;;;;;;5.53;4.40;;;15.20;99.90;;;;;;12547657;28;20045;-86
2021/08/04 06:09:56;;;;;;;6.53;4.70;;;15.20;99.90;;;;;;12546229;28;20052;-87
2021/08/04 06:15:58;;;;;;;7.50;4.50;;;15.10;99.90;;;;;;12545665;28;20076;-87
2021/08/04 06:22:02;;;;;;;8.30;4.80;;;15.10;99.90;;;;;;12544116;28;20108;-87
2021/08/04 06:28:05;;;;;;;9.02;4.55;;;15.30;99.90;;;;;;12543295;28;20049;-87
2021/08/04 06:34:07;;;;;;;5.97;4.45;;;15.30;99.90;;;;;;12551836;28;20053;-86
2021/08/04 06:40:09;;;;;;;6.57;4.38;;;15.40;99.90;;;;;;12549556;28;20123;-86
2021/08/04 06:46:12;;;;;;;6.38;4.22;;;15.40;99.90;;;;;;12541820;28;20053;-86
2021/08/04 06:52:16;;;;;;;4.90;3.78;;;15.30;99.90;;;;;;12544865;28;20044;-86
2021/08/04 06:58:18;;;;;;;6.43;4.07;;;15.50;99.90;;;;;;12552124;28;20215;-87
2021/08/04 07:04:20;;;;;;;4.80;4.05;;;15.60;99.90;;;;;;12555669;28;20207;-87
2021/08/04 07:10:22;;;;;;;5.78;3.83;;;15.60;99.90;;;;;;12549310;28;20127;-87
2021/08/04 07:16:23;;;;;;;5.07;3.50;;;15.60;99.90;;;;;;12560418;28;20052;-86
2021/08/04 07:22:25;;;;;;;4.85;3.28;;;15.80;99.90;;;;;;12549590;28;20071;-87
2021/08/04 07:28:27;;;;;;;7.57;3.85;;;15.90;99.90;;;;;;12543563;28;20429;-86
2021/08/04 07:34:29;;;;;;;5.15;3.05;;;15.80;99.90;;;;;;12543588;28;20508;-86
2021/08/04 07:40:31;;;;;;;6.70;3.42;;;16.00;99.90;;;;;;12546040;28;20102;-86
2021/08/04 07:46:33;;;;;;;4.53;3.17;;;16.00;99.90;;;;;;12547128;28;20177;-85
2021/08/04 07:52:35;;;;;;;7.30;3.45;;;15.90;99.90;;;;;;12547087;28;20162;-87
2021/08/04 07:58:37;;;;;;;6.00;3.70;;;15.90;99.90;;;;;;12546161;28;20049;-87
2021/08/04 08:04:38;;;;;;;6.32;3.58;;;16.10;99.90;;;;;;12538287;28;20060;-87
2021/08/04 08:10:41;;;;;;;5.53;3.47;;;16.20;99.90;;;;;;12553838;28;20052;-87
2021/08/04 08:16:43;;;;;;;7.30;3.33;;;16.20;99.90;;;;;;12541812;28;20170;-86
2021/08/04 08:22:46;;;;;;;6.07;3.38;;;15.90;99.90;;;;;;12539581;28;20052;-87
2021/08/04 08:28:48;;;;;;;4.38;3.47;;;16.00;99.90;;;;;;12539524;28;20052;-87
2021/08/04 08:34:50;;;;;;;5.40;3.97;;;16.00;99.90;;;;;;12543694;28;20104;-86
2021/08/04 08:40:52;;;;;;;4.78;3.60;;;16.10;99.90;;;;;;12539399;28;20508;-87
2021/08/04 08:46:54;;;;;;;4.57;3.50;;;16.10;99.90;;;;;;12535500;28;20065;-87
2021/08/04 08:52:57;;;;;;;5.22;3.42;;;16.20;99.90;;;;;;12551976;28;20079;-88
2021/08/04 08:58:59;;;;;;;5.55;3.83;;;16.60;99.90;;;;;;12570901;28;20050;-87
2021/08/04 09:05:04;;;;;;;5.47;3.50;;;16.80;99.90;;;;;;12576400;28;20044;-87
2021/08/04 09:11:14;;;;;;;9.00;4.03;;;17.40;99.90;;;;;;12564855;28;20049;-87
2021/08/04 09:17:17;;;;;;;6.00;3.40;;;17.80;99.90;;;;;;12566635;28;20467;-85
2021/08/04 09:23:22;;;;;;;5.13;3.40;;;18.00;99.90;;;;;;12570745;28;20044;-87
2021/08/04 09:29:24;;;;;;;5.45;3.47;;;17.80;99.90;;;;;;12571210;28;20575;-87
2021/08/04 09:35:26;;;;;;;7.18;3.35;;;18.20;99.90;;;;;;12550475;28;20045;-87
2021/08/04 09:41:28;;;;;;;4.75;2.80;;;18.40;99.90;;;;;;12541034;28;20108;-86
2021/08/04 09:47:31;;;;;;;4.50;2.67;;;18.30;99.90;;;;;;12546681;28;20524;-87
2021/08/04 09:53:35;;;;;;;6.27;2.83;;;18.60;99.90;;;;;;12552359;28;20152;-87
2021/08/04 09:59:37;;;;;;;3.28;2.28;;;18.80;99.90;;;;;;12556536;28;20060;-86
2021/08/04 10:05:44;;;;;;;5.85;2.75;;;19.20;99.90;;;;;;12531772;28;20516;-88
2021/08/04 10:11:48;;;;;;;3.35;2.40;;;19.60;99.90;;;;;;12530983;28;20512;-87
2021/08/04 10:17:50;;;;;;;4.65;2.80;;;19.50;99.90;;;;;;12529361;28;20175;-86
2021/08/04 10:23:53;;;;;;;2.80;2.20;;;19.60;99.90;;;;;;12541985;28;20049;-87
2021/08/04 10:29:55;;;;;;;4.17;2.47;;;19.40;99.90;;;;;;12543651;28;20049;-87
2021/08/04 10:36:02;;;;;;;2.70;1.80;;;19.80;99.90;;;;;;12544586;28;20128;-87
2021/08/04 10:42:06;;;;;;;6.43;1.90;;;19.70;99.90;;;;;;12536966;28;20186;-88
2021/08/04 10:48:24;;;;;;;4.82;1.90;;;19.70;99.90;;;;;;12534457;28;20049;-87
2021/08/04 10:54:30;;;;;;;3.30;1.75;;;20.20;99.90;;;;;;12524401;28;20127;-88
2021/08/04 11:00:33;;;;;;;3.17;1.77;;;20.30;99.90;;;;;;12542481;28;20161;-87
2021/08/04 11:06:55;;;;;;;3.85;1.88;;;20.80;99.90;;;;;;12541419;28;20045;-86
2021/08/04 11:12:57;;;;;;;2.97;1.77;;;21.00;99.90;;;;;;12537879;28;20175;-88
2021/08/04 11:19:10;;;;;;;3.90;1.80;;;21.20;99.90;;;;;;12531517;28;20056;-88
2021/08/04 11:25:31;;;;;;;4.25;2.20;;;21.50;99.90;;;;;;12553019;28;20068;-87
2021/08/04 11:31:33;;;;;;;2.92;1.90;;;21.20;99.90;;;;;;12528191;28;20132;-88
2021/08/04 11:37:42;;;;;;;3.55;2.63;;;20.50;99.90;;;;;;12539946;28;20226;-86
2021/08/04 11:43:48;;;;;;;3.40;2.40;;;21.20;99.90;;;;;;12543490;28;20394;-87
2021/08/04 11:49:52;;;;;;;;;;;21.50;99.90;;;;;;12541184;28;20044;-88
2021/08/04 11:56:02;;;;;;;6.18;2.38;;;20.80;99.90;;;;;;12556591;28;19996;-87
2021/08/04 12:02:04;;;;;;;4.65;2.53;;;20.10;99.90;;;;;;12563039;28;20091;-89
2021/08/04 12:08:06;;;;;;;4.05;2.65;;;19.90;99.90;;;;;;12559420;28;20048;-87
2021/08/04 12:14:08;;;;;;;4.90;2.80;;;19.70;99.90;;;;;;12571773;28;20080;-89
2021/08/04 12:20:24;;;;;;;7.95;2.80;;;19.50;99.90;;;;;;12557090;28;20620;-88
2021/08/04 12:26:26;;;;;;;5.13;2.65;;;19.50;99.90;;;;;;12556315;28;20082;-88
2021/08/04 12:32:31;;;;;;;4.68;3.28;;;19.60;99.90;;;;;;12572282;28;20073;-85
2021/08/04 12:38:45;;;;;;;7.60;3.00;;;19.50;99.90;;;;;;12559651;28;20045;-88
2021/08/04 12:44:47;;;;;;;10.40;2.83;;;19.50;99.90;;;;;;12550735;28;20040;-88
2021/08/04 12:50:57;;;;;;;4.78;2.58;;;19.40;99.90;;;;;;12545060;28;20117;-88
2021/08/04 12:57:22;;;;;;;3.97;2.60;;;19.60;99.90;;;;;;12557003;28;20504;-88
2021/08/04 13:03:32;;;;;;;4.63;2.58;;;19.40;99.90;;;;;;12569615;28;20049;-88
2021/08/04 13:09:36;;;;;;;5.50;2.38;;;19.40;99.90;;;;;;12565989;28;20049;-87
2021/08/04 13:15:47;;;;;;;3.80;2.50;;;19.30;99.90;;;;;;12553334;28;20049;-88
2021/08/04 13:22:05;;;;;;;4.45;2.60;;;19.30;99.90;;;;;;12556420;28;20131;-88
2021/08/04 13:28:37;;;;;;;6.25;2.67;;;19.50;99.90;;;;;;12552904;28;20045;-88
2021/08/04 13:34:39;;;;;;;3.58;2.25;;;19.60;99.90;;;;;;12548990;28;20605;-88
2021/08/04 13:40:42;;;;;;;5.18;3.00;;;20.40;99.90;;;;;;12551458;28;20095;-87
2021/08/04 13:46:44;;;;;;;6.60;2.90;;;20.10;99.90;;;;;;12543695;28;20056;-88
2021/08/04 13:52:47;;;;;;;4.85;2.50;;;20.00;99.90;;;;;;12520205;28;20053;-89
2021/08/04 13:58:49;;;;;;;5.20;2.30;;;19.80;99.90;;;;;;12515065;28;20050;-85
2021/08/04 14:04:51;;;;;;;5.40;2.83;;;19.40;99.90;;;;;;12518146;28;20052;-89
2021/08/04 14:10:53;;;;;;;4.55;2.72;;;18.90;99.90;;;;;;12518667;28;20044;-86
2021/08/04 14:16:56;;;;;;;4.70;2.40;;;18.70;99.90;;;;;;12519858;28;20048;-86
2021/08/04 14:23:02;;;;;;;3.60;2.30;;;18.30;99.90;;;;;;12520141;28;20049;-87
2021/08/04 14:29:04;;;;;;;3.17;2.03;;;18.10;99.90;;;;;;12516471;28;20084;-88
2021/08/04 14:35:07;;;;;;;3.55;2.15;;;17.80;99.90;;;;;;12504642;28;20053;-87
2021/08/04 14:41:08;;;;;;;2.60;1.60;;;17.70;99.90;;;;;;12515256;28;20133;-87
2021/08/04 14:47:10;;;;;;;3.58;1.90;;;17.50;99.90;;;;;;12517123;28;20048;-87
2021/08/04 14:53:12;;;;;;;4.15;1.75;;;17.40;99.90;;;;;;12512738;28;20049;-87
2021/08/04 14:59:15;;;;;;;2.47;1.80;;;17.20;99.90;;;;;;12507480;28;20072;-89
2021/08/04 15:05:16;;;;;;;2.92;1.83;;;17.10;99.90;;;;;;12531835;28;20055;-90
2021/08/04 15:11:18;;;;;;;2.88;1.95;;;17.00;99.90;;;;;;12512593;28;20040;-89
2021/08/04 15:17:20;;;;;;;6.80;2.70;;;17.20;99.90;;;;;;12533904;28;20131;-89
2021/08/04 15:23:22;;;;;;;4.40;2.80;;;17.40;99.90;;;;;;12523925;28;20640;-90
2021/08/04 15:29:41;;;;;;;4.80;2.55;;;17.50;99.90;;;;;;12532484;28;20091;-89
2021/08/04 15:35:43;;;;;;;5.15;3.03;;;17.60;99.90;;;;;;12524172;28;20084;-89
2021/08/04 15:41:45;;;;;;;3.60;2.30;;;17.40;99.90;;;;;;12526613;28;20135;-89
2021/08/04 15:47:47;;;;;;;2.70;1.98;;;17.50;99.90;;;;;;12512337;28;20052;-89
2021/08/04 15:53:52;;;;;;;5.32;1.85;;;17.30;99.90;;;;;;12516830;28;20077;-89
2021/08/04 15:59:54;;;;;;;3.38;2.17;;;17.30;99.90;;;;;;12525362;28;20144;-90
2021/08/04 16:05:56;;;;;;;6.68;2.67;;;17.30;99.90;;;;;;12524239;28;20048;-89
2021/08/04 16:11:58;;;;;;;6.20;3.22;;;17.30;99.90;;;;;;12518978;28;20037;-89
2021/08/04 16:18:00;;;;;;;4.93;3.10;;;17.50;99.90;;;;;;12527792;28;20563;-89
2021/08/04 16:24:02;;;;;;;4.40;2.67;;;18.10;99.90;;;;;;12523336;28;20112;-89
2021/08/04 16:30:06;;;;;;;5.00;3.40;;;18.80;99.90;;;;;;12537132;28;20112;-89
2021/08/04 16:36:08;;;;;;;4.03;2.80;;;18.80;99.90;;;;;;12523935;28;20071;-89
2021/08/04 16:42:10;;;;;;;7.50;3.05;;;18.80;99.90;;;;;;12551711;28;20060;-89
2021/08/04 16:48:12;;;;;;;4.60;3.30;;;18.80;99.90;;;;;;12551426;28;20340;-89
2021/08/04 16:54:15;;;;;;;4.20;3.20;;;18.60;99.90;;;;;;12533732;28;20091;-89
2021/08/04 17:00:24;;;;;;;5.65;3.85;;;18.70;99.90;;;;;;12525836;28;20062;-89
2021/08/04 17:06:26;;;;;;;10.63;4.28;;;18.60;99.90;;;;;;12528664;28;20060;-89
2021/08/04 17:12:28;;;;;;;4.95;3.30;;;18.80;99.90;;;;;;12528769;28;20425;-88
2021/08/04 17:18:30;;;;;;;5.97;3.70;;;19.70;99.90;;;;;;12529809;28;20798;-89
2021/08/04 17:24:32;;;;;;;4.63;3.40;;;20.80;99.90;;;;;;12539677;28;20045;-89
2021/08/04 17:30:34;;;;;;;6.80;4.20;;;19.60;99.90;;;;;;12520980;28;20532;-89
2021/08/04 17:36:36;;;;;;;5.93;3.75;;;19.30;99.90;;;;;;12528171;28;20072;-89
2021/08/04 17:42:38;;;;;;;6.57;3.40;;;19.30;99.90;;;;;;12521469;28;20055;-89
2021/08/04 17:48:43;;;;;;;17.77;4.60;;;19.20;99.90;;;;;;12520810;28;20565;-89
2021/08/04 17:54:45;;;;;;;6.35;3.67;;;19.00;99.90;;;;;;12517882;28;20057;-89
2021/08/04 18:00:47;;;;;;;4.85;3.75;;;18.80;99.90;;;;;;12513574;28;20191;-89
2021/08/04 18:06:49;;;;;;;4.80;3.50;;;18.50;99.90;;;;;;12521535;28;20050;-88
2021/08/04 18:12:51;;;;;;;6.20;3.67;;;18.40;99.90;;;;;;12523872;28;20045;-88
2021/08/04 18:18:53;;;;;;;8.32;4.28;;;18.20;99.90;;;;;;12522806;28;20044;-89
2021/08/04 18:24:55;;;;;;;6.30;3.50;;;18.00;99.90;;;;;;12524030;28;20060;-89
2021/08/04 18:31:00;;;;;;;4.40;3.40;;;17.80;99.90;;;;;;12529617;28;20036;-89
2021/08/04 18:37:02;;;;;;;5.38;3.50;;;17.80;99.90;;;;;;12529425;28;20052;-88
2021/08/04 18:43:04;;;;;;;6.85;3.88;;;17.60;99.90;;;;;;12525110;28;20045;-88
2021/08/04 18:49:06;;;;;;;5.70;3.08;;;17.40;99.90;;;;;;12530178;28;20049;-88
2021/08/04 18:55:08;;;;;;;4.72;3.10;;;17.30;99.90;;;;;;12531680;28;20060;-88
2021/08/04 19:01:10;;;;;;;5.32;2.78;;;17.30;99.90;;;;;;12541374;28;20075;-88
2021/08/04 19:07:13;;;;;;;4.35;3.10;;;17.20;99.90;;;;;;12535685;28;20929;-88
2021/08/04 19:13:28;;;;;;;5.22;3.20;;;17.10;99.90;;;;;;12547558;28;20091;-88
2021/08/04 19:19:30;;;;;;;4.82;2.85;;;17.20;99.90;;;;;;12537990;28;20169;-88
2021/08/04 19:25:33;;;;;;;5.25;3.50;;;17.00;99.90;;;;;;12529453;28;20627;-88
2021/08/04 19:31:35;;;;;;;6.55;3.38;;;16.80;99.90;;;;;;12547094;28;20161;-88
2021/08/04 19:37:38;;;;;;;5.50;3.53;;;16.70;99.90;;;;;;12540663;28;20061;-88
2021/08/04 19:43:41;;;;;;;6.97;3.43;;;16.60;99.90;;;;;;12558111;28;20493;-87
2021/08/04 19:49:44;;;;;;;4.80;3.40;;;16.50;99.90;;;;;;12550067;28;20051;-88
2021/08/04 19:55:46;;;;;;;5.93;3.40;;;16.60;99.90;;;;;;12549139;28;20131;-87
2021/08/04 20:01:48;;;;;;;4.78;3.30;;;16.30;99.90;;;;;;12547510;28;20095;-88
2021/08/04 20:07:50;;;;;;;6.10;3.53;;;16.10;99.90;;;;;;12545916;28;20525;-87
2021/08/04 20:13:52;;;;;;;6.60;3.85;;;16.10;99.90;;;;;;12535051;28;20498;-87
2021/08/04 20:19:54;;;;;;;6.57;3.60;;;16.20;99.90;;;;;;12531096;28;20511;-87
2021/08/04 20:25:56;;;;;;;5.15;3.75;;;16.00;99.90;;;;;;12544205;28;20037;-87
2021/08/04 20:31:58;;;;;;;5.00;3.65;;;16.00;99.90;;;;;;12546755;28;21697;-87
2021/08/04 20:38:00;;;;;;;5.88;3.78;;;16.10;99.90;;;;;;12547330;28;20116;-87
2021/08/04 20:44:03;;;;;;;5.30;3.95;;;15.90;99.90;;;;;;12542526;28;20044;-87
2021/08/04 20:50:05;;;;;;;6.15;4.40;;;16.10;99.90;;;;;;12566364;28;20390;-87
2021/08/04 20:56:07;;;;;;;5.05;4.28;;;16.00;99.90;;;;;;12560475;28;20072;-88
2021/08/04 21:02:14;;;;;;;6.13;4.75;;;15.90;99.90;;;;;;12541695;28;20044;-88
2021/08/04 21:08:16;;;;;;;5.75;4.65;;;15.90;99.90;;;;;;12533140;28;20106;-87
2021/08/04 21:14:18;;;;;;;6.85;4.57;;;16.00;99.90;;;;;;12542236;28;20046;-87
2021/08/04 21:20:20;;;;;;;5.90;4.40;;;16.00;99.90;;;;;;12531748;28;20056;-88
2021/08/04 21:26:22;;;;;;;5.43;4.15;;;16.00;99.90;;;;;;12529817;28;20041;-87
2021/08/04 21:32:24;;;;;;;5.93;4.47;;;16.00;99.90;;;;;;12540144;28;20726;-86
2021/08/04 21:38:26;;;;;;;9.00;4.53;;;16.10;99.90;;;;;;12527121;28;20048;-87
2021/08/04 21:44:27;;;;;;;5.25;3.95;;;16.10;99.90;;;;;;12523411;28;20048;-87
2021/08/04 21:50:29;;;;;;;5.20;3.50;;;16.10;99.90;;;;;;12539706;28;20722;-87
2021/08/04 21:56:31;;;;;;;6.38;3.80;;;16.10;99.90;;;;;;12536871;28;20056;-88
2021/08/04 22:02:33;;;;;;;4.43;3.38;;;16.10;99.90;;;;;;12528921;28;20198;-87
2021/08/04 22:08:35;;;;;;;4.72;3.15;;;16.20;99.90;;;;;;12538567;28;20955;-87
2021/08/04 22:14:37;;;;;;;6.55;3.00;;;16.40;99.90;;;;;;12533385;28;20131;-88
2021/08/04 22:20:40;;;;;;;4.20;3.03;;;16.00;99.90;;;;;;12540724;28;20084;-87
2021/08/04 22:26:42;;;;;;;5.00;2.90;;;16.20;99.90;;;;;;12539872;28;20068;-87
2021/08/04 22:32:44;;;;;;;4.65;3.05;;;16.30;99.90;;;;;;12548945;28;20691;-87
2021/08/04 22:38:45;;;;;;;5.35;3.70;;;16.20;99.90;;;;;;12543935;28;20135;-87
2021/08/04 22:44:47;;;;;;;5.25;3.20;;;16.20;99.90;;;;;;12540692;28;20444;-87
2021/08/04 22:50:59;;;;;;;3.75;2.85;;;16.30;99.90;;;;;;12542033;28;20045;-87
2021/08/04 22:57:01;;;;;;;5.07;2.75;;;16.20;99.90;;;;;;12541965;28;20440;-87
2021/08/04 23:03:04;;;;;;;5.28;2.90;;;16.20;99.90;;;;;;12537478;28;20230;-87
2021/08/04 23:09:06;;;;;;;5.22;2.58;;;16.20;99.90;;;;;;12543138;28;20103;-87
2021/08/04 23:15:09;;;;;;;5.05;3.08;;;16.30;99.90;;;;;;12528179;28;20185;-87
2021/08/04 23:21:12;;;;;;;4.05;2.88;;;16.20;99.90;;;;;;12536152;28;20056;-87
2021/08/04 23:27:14;;;;;;;3.80;2.93;;;16.10;99.90;;;;;;12526598;28;20148;-87
2021/08/04 23:33:16;;;;;;;4.68;3.08;;;16.10;99.90;;;;;;12545339;28;20079;-87
2021/08/04 23:39:18;;;;;;;5.10;3.00;;;16.10;99.90;;;;;;12541694;28;20049;-88
2021/08/04 23:45:19;;;;;;;5.68;3.45;;;16.00;99.90;;;;;;12542206;28;20049;-87
2021/08/04 23:51:21;;;;;;;5.53;3.58;;;16.10;99.90;;;;;;12548937;28;20087;-87
2021/08/04 23:57:23;;;;;;;5.07;4.22;;;16.10;99.90;;;;;;12551963;28;20459;-87
